createdAt,value
2022-10-11T00:02:49.426Z,7.50
2022-10-11T00:07:52.127Z,7.95
2022-10-11T00:12:54.342Z,9.07
2022-10-11T00:17:57.114Z,8.82
2022-10-11T00:22:59.295Z,8.23
2022-10-11T00:28:01.701Z,8.70
2022-10-11T00:33:04.040Z,9.82
2022-10-11T00:38:06.490Z,9.35
2022-10-11T00:43:22.047Z,9.23
2022-10-11T00:48:29.591Z,9.32
2022-10-11T00:53:33.201Z,8.48
2022-10-11T00:58:36.926Z,8.55
2022-10-11T01:03:39.937Z,9.35
2022-10-11T01:08:42.619Z,8.93
2022-10-11T01:14:13.831Z,9.35
2022-10-11T01:19:37.670Z,9.40
2022-10-11T01:24:39.794Z,9.77
2022-10-11T01:30:06.097Z,9.73
2022-10-11T01:35:15.876Z,9.07
2022-10-11T01:40:42.394Z,9.48
2022-10-11T01:45:46.148Z,8.05
2022-10-11T01:50:53.607Z,8.52
2022-10-11T01:56:09.618Z,9.10
2022-10-11T02:01:27.762Z,9.05
2022-10-11T02:06:58.591Z,8.40
2022-10-11T02:12:13.081Z,8.60
2022-10-11T02:17:20.304Z,8.73
2022-10-11T02:22:44.695Z,8.43
2022-10-11T02:27:50.959Z,8.40
2022-10-11T02:32:55.049Z,8.57
2022-10-11T02:38:13.936Z,8.73
2022-10-11T02:43:33.522Z,9.68
2022-10-11T02:48:36.632Z,8.27
2022-10-11T02:53:39.009Z,9.00
2022-10-11T02:58:41.383Z,8.80
2022-10-11T03:03:43.587Z,9.07
2022-10-11T03:08:46.030Z,9.13
2022-10-11T03:13:48.451Z,8.82
2022-10-11T03:18:50.984Z,9.18
2022-10-11T03:23:53.337Z,10.23
2022-10-11T03:28:55.831Z,9.27
2022-10-11T03:33:58.099Z,8.88
2022-10-11T03:39:01.078Z,9.70
2022-10-11T03:44:03.393Z,8.75
2022-10-11T03:49:05.820Z,8.85
2022-10-11T03:54:08.193Z,9.23
2022-10-11T03:59:11.122Z,10.43
2022-10-11T04:04:13.325Z,10.73
2022-10-11T04:09:15.542Z,11.07
2022-10-11T04:14:17.969Z,11.57
2022-10-11T04:19:20.625Z,10.88
2022-10-11T04:24:22.939Z,10.23
2022-10-11T04:29:31.430Z,11.20
2022-10-11T04:39:37.688Z,10.73
2022-10-11T04:44:40.046Z,12.32
2022-10-11T04:49:42.265Z,12.18
2022-10-11T04:54:44.526Z,11.07
2022-10-11T04:59:50.215Z,12.35
2022-10-11T05:04:52.659Z,11.73
2022-10-11T05:09:55.061Z,12.50
2022-10-11T05:14:58.493Z,12.63
2022-10-11T05:20:00.839Z,11.18
2022-10-11T05:25:03.134Z,11.63
2022-10-11T05:30:06.134Z,11.98
2022-10-11T05:35:08.812Z,10.90
2022-10-11T05:40:11.626Z,10.80
2022-10-11T05:45:13.923Z,9.25
2022-10-11T05:50:19.636Z,8.88
2022-10-11T05:55:24.702Z,10.50
2022-10-11T06:00:27.619Z,10.23
2022-10-11T06:06:25.695Z,10.02
2022-10-11T06:11:28.508Z,10.00
2022-10-11T06:16:30.673Z,10.02
2022-10-11T06:21:33.473Z,10.60
2022-10-11T06:26:35.895Z,10.07
2022-10-11T06:31:38.107Z,9.02
2022-10-11T06:36:40.394Z,9.25
2022-10-11T06:41:42.676Z,12.02
2022-10-11T06:46:44.844Z,12.45
2022-10-11T06:51:47.212Z,11.50
2022-10-11T06:56:49.713Z,11.18
2022-10-11T07:01:51.876Z,10.52
2022-10-11T07:06:54.079Z,10.38
2022-10-11T07:11:56.273Z,9.10
2022-10-11T07:16:58.486Z,8.32
2022-10-11T07:22:00.778Z,8.05
2022-10-11T07:27:03.731Z,8.75
2022-10-11T07:32:06.639Z,8.05
2022-10-11T07:37:09.050Z,7.90
2022-10-11T07:42:11.339Z,7.70
2022-10-11T07:47:13.635Z,7.57
2022-10-11T07:52:15.830Z,8.27
2022-10-11T07:57:18.024Z,7.53
2022-10-11T08:02:20.305Z,7.50
2022-10-11T08:07:22.557Z,7.88
2022-10-11T08:12:24.710Z,8.13
2022-10-11T08:17:27.074Z,7.68
2022-10-11T08:22:29.259Z,8.10
2022-10-11T08:27:31.733Z,8.60
2022-10-11T08:32:34.186Z,7.10
2022-10-11T08:37:36.583Z,7.20
2022-10-11T08:43:14.263Z,6.22
2022-10-11T08:48:27.250Z,6.78
2022-10-11T08:53:57.394Z,6.78
2022-10-11T08:59:04.905Z,6.18
2022-10-11T09:04:10.880Z,6.65
2022-10-11T09:09:53.299Z,6.05
2022-10-11T09:15:03.726Z,6.30
2022-10-11T09:20:31.842Z,6.43
2022-10-11T09:25:38.385Z,6.47
2022-10-11T09:30:48.745Z,6.47
2022-10-11T09:35:52.771Z,6.80
2022-10-11T09:41:19.298Z,6.30
2022-10-11T09:46:35.161Z,7.15
2022-10-11T09:51:38.312Z,6.82
2022-10-11T09:56:44.355Z,6.63
2022-10-11T10:01:46.813Z,7.28
2022-10-11T10:06:49.102Z,7.40
2022-10-11T10:11:51.824Z,6.65
2022-10-11T10:17:15.960Z,6.70
2022-10-11T10:22:27.977Z,6.88
2022-10-11T10:27:31.765Z,6.72
2022-10-11T10:32:54.094Z,6.93
2022-10-11T10:38:17.020Z,5.97
2022-10-11T10:43:22.230Z,6.53
2022-10-11T10:49:23.227Z,7.05
2022-10-11T10:54:23.817Z,6.40
2022-10-11T10:59:31.773Z,6.80
2022-10-11T11:04:35.826Z,7.28
2022-10-11T11:10:02.530Z,6.28
2022-10-11T11:15:19.599Z,5.97
2022-10-11T11:20:30.767Z,6.43
2022-10-11T11:25:44.873Z,6.55
2022-10-11T11:30:57.728Z,6.30
2022-10-11T11:36:06.259Z,6.50
2022-10-11T11:41:16.161Z,6.43
2022-10-11T11:46:23.821Z,6.03
2022-10-11T11:51:37.832Z,6.47
2022-10-11T11:56:55.285Z,6.13
2022-10-11T12:02:55.309Z,7.20
2022-10-11T12:08:06.435Z,6.65
2022-10-11T12:13:18.507Z,6.05
2022-10-11T12:18:21.482Z,6.05
2022-10-11T12:23:29.574Z,5.82
2022-10-11T12:28:37.511Z,4.77
2022-10-11T12:33:39.707Z,5.93
2022-10-11T12:38:42.298Z,5.80
2022-10-11T12:43:50.590Z,4.95
2022-10-11T12:49:14.581Z,6.05
2022-10-11T12:54:43.033Z,5.10
2022-10-11T12:59:47.984Z,5.13
2022-10-11T13:04:50.290Z,5.68
2022-10-11T13:09:56.301Z,5.68
2022-10-11T13:15:05.916Z,5.72
2022-10-11T13:20:18.518Z,7.47
2022-10-11T13:25:23.898Z,6.07
2022-10-11T13:30:34.844Z,6.25
2022-10-11T13:35:38.945Z,6.82
2022-10-11T13:40:41.243Z,5.88
2022-10-11T13:45:43.590Z,6.13
2022-10-11T13:50:52.918Z,6.70
2022-10-11T13:55:59.749Z,6.80
2022-10-11T14:01:05.593Z,5.95
2022-10-11T14:06:08.872Z,6.07
2022-10-11T14:11:13.991Z,6.72
2022-10-11T14:16:19.350Z,5.95
2022-10-11T14:21:25.794Z,5.70
2022-10-11T14:26:36.273Z,6.22
2022-10-11T14:31:42.028Z,6.75
2022-10-11T14:36:44.450Z,6.10
2022-10-11T14:41:47.593Z,6.00
2022-10-11T14:46:54.033Z,5.70
2022-10-11T14:51:58.698Z,5.60
2022-10-11T14:57:03.396Z,6.47
2022-10-11T15:02:08.892Z,5.85
2022-10-11T15:07:13.419Z,6.57
2022-10-11T15:12:15.632Z,6.13
2022-10-11T15:17:18.054Z,5.72
2022-10-11T15:22:20.434Z,5.65
2022-10-11T15:27:25.997Z,6.07
2022-10-11T15:32:28.123Z,4.88
2022-10-11T15:37:33.783Z,5.47
2022-10-11T15:42:38.727Z,5.97
2022-10-11T15:47:40.965Z,6.10
2022-10-11T15:52:43.195Z,6.60
2022-10-11T15:57:45.790Z,7.05
2022-10-11T16:02:48.067Z,6.80
2022-10-11T16:07:53.903Z,9.68
2022-10-11T16:12:56.506Z,6.32
2022-10-11T16:17:58.748Z,5.43
2022-10-11T16:23:01.208Z,6.78
2022-10-11T16:28:04.193Z,6.78
2022-10-11T16:33:06.518Z,5.18
2022-10-11T16:38:10.463Z,5.32
2022-10-11T16:43:12.723Z,5.53
2022-10-11T16:48:14.910Z,5.50
2022-10-11T16:53:21.856Z,5.80
2022-10-11T16:58:24.482Z,5.72
2022-10-11T17:03:26.861Z,6.03
2022-10-11T17:08:29.685Z,6.07
2022-10-11T17:13:31.957Z,6.07
2022-10-11T17:18:34.288Z,6.47
2022-10-11T17:23:37.350Z,5.90
2022-10-11T17:28:39.563Z,6.00
2022-10-11T17:33:41.900Z,6.30
2022-10-11T17:38:44.371Z,5.70
2022-10-11T17:43:47.147Z,5.80
2022-10-11T17:48:51.965Z,5.50
2022-10-11T17:53:54.769Z,6.00
2022-10-11T17:58:58.829Z,7.30
2022-10-11T18:04:03.598Z,5.45
2022-10-11T18:09:06.236Z,5.55
2022-10-11T18:14:08.701Z,6.00
2022-10-11T18:19:12.863Z,5.68
2022-10-11T18:24:17.038Z,5.43
2022-10-11T18:29:19.197Z,5.60
2022-10-11T18:34:21.356Z,6.05
2022-10-11T18:39:23.570Z,6.90
2022-10-11T18:44:25.893Z,6.57
2022-10-11T18:49:28.060Z,6.93
2022-10-11T18:54:30.262Z,5.55
2022-10-11T18:59:33.371Z,5.82
2022-10-11T19:04:35.522Z,6.75
2022-10-11T19:09:38.209Z,6.93
2022-10-11T19:14:40.574Z,7.40
2022-10-11T19:19:42.727Z,6.20
2022-10-11T19:24:46.139Z,5.93
2022-10-11T19:29:48.368Z,5.25
2022-10-11T19:34:51.122Z,4.75
2022-10-11T19:39:53.263Z,4.65
2022-10-11T19:44:55.661Z,5.97
2022-10-11T19:49:58.042Z,4.97
2022-10-11T19:55:00.199Z,4.90
2022-10-11T20:00:02.398Z,4.53
2022-10-11T20:05:04.935Z,4.32
2022-10-11T20:10:07.221Z,4.80
2022-10-11T20:15:09.831Z,5.07
2022-10-11T20:20:12.047Z,4.95
2022-10-11T20:25:14.242Z,5.38
2022-10-11T20:30:16.459Z,5.25
2022-10-11T20:35:18.611Z,5.82
2022-10-11T20:40:20.969Z,6.53
2022-10-11T20:45:23.269Z,6.00
2022-10-11T20:50:25.690Z,5.38
2022-10-11T20:55:28.252Z,4.82
2022-10-11T21:00:31.004Z,4.75
2022-10-11T21:05:33.722Z,5.00
2022-10-11T21:10:36.723Z,4.55
2022-10-11T21:15:38.963Z,4.82
2022-10-11T21:20:42.729Z,4.28
2022-10-11T21:25:45.306Z,4.45
2022-10-11T21:30:47.541Z,4.70
2022-10-11T21:35:49.743Z,4.28
2022-10-11T21:40:52.289Z,4.97
2022-10-11T21:45:54.597Z,4.75
2022-10-11T21:50:56.993Z,4.80
2022-10-11T21:56:01.900Z,4.53
2022-10-11T22:01:04.579Z,4.28
2022-10-11T22:06:06.931Z,4.82
2022-10-11T22:11:09.520Z,5.97
2022-10-11T22:16:14.030Z,4.72
2022-10-11T22:21:21.575Z,5.68
2022-10-11T22:26:31.207Z,5.43
2022-10-11T22:31:35.205Z,5.93
2022-10-11T22:36:38.360Z,5.47
2022-10-11T22:41:42.177Z,5.82
2022-10-11T22:46:44.333Z,5.30
2022-10-11T22:51:46.720Z,5.25
2022-10-11T22:56:49.010Z,7.35
2022-10-11T23:01:51.189Z,6.07
2022-10-11T23:06:53.454Z,6.80
2022-10-11T23:11:56.336Z,6.07
2022-10-11T23:16:58.492Z,6.35
2022-10-11T23:22:00.813Z,6.30
2022-10-11T23:27:03.008Z,6.15
2022-10-11T23:32:05.393Z,6.53
2022-10-11T23:37:07.954Z,6.22
2022-10-11T23:42:10.432Z,6.55
2022-10-11T23:47:12.601Z,6.40
2022-10-11T23:52:14.962Z,6.65
2022-10-11T23:57:17.137Z,6.95
